sensor_id;sensor_type;location;lat;lon;timestamp;P1;durP1;ratioP1;P2;durP2;ratioP2
1885;SDS011;943;51.568;6.998;2023-04-08T00:00:47;64.57;;;34.53;;
1885;SDS011;943;51.568;6.998;2023-04-08T00:03:16;57.90;;;31.77;;
1885;SDS011;943;51.568;6.998;2023-04-08T00:05:45;50.23;;;30.43;;
1885;SDS011;943;51.568;6.998;2023-04-08T00:08:12;52.20;;;32.40;;
1885;SDS011;943;51.568;6.998;2023-04-08T00:10:40;44.20;;;30.67;;
1885;SDS011;943;51.568;6.998;2023-04-08T00:13:08;48.40;;;30.07;;
1885;SDS011;943;51.568;6.998;2023-04-08T00:15:36;51.10;;;31.00;;
1885;SDS011;943;51.568;6.998;2023-04-08T00:18:03;50.20;;;31.10;;
1885;SDS011;943;51.568;6.998;2023-04-08T00:20:33;47.13;;;29.27;;
1885;SDS011;943;51.568;6.998;2023-04-08T00:23:01;48.47;;;29.17;;
1885;SDS011;943;51.568;6.998;2023-04-08T00:25:29;46.20;;;28.43;;
1885;SDS011;943;51.568;6.998;2023-04-08T00:27:57;44.90;;;28.80;;
1885;SDS011;943;51.568;6.998;2023-04-08T00:30:26;50.93;;;28.63;;
1885;SDS011;943;51.568;6.998;2023-04-08T00:32:54;48.90;;;30.77;;
1885;SDS011;943;51.568;6.998;2023-04-08T00:35:23;49.83;;;31.30;;
1885;SDS011;943;51.568;6.998;2023-04-08T00:37:51;45.80;;;27.57;;
1885;SDS011;943;51.568;6.998;2023-04-08T00:40:19;47.53;;;32.47;;
1885;SDS011;943;51.568;6.998;2023-04-08T00:42:46;48.10;;;28.70;;
1885;SDS011;943;51.568;6.998;2023-04-08T00:45:16;53.63;;;33.07;;
1885;SDS011;943;51.568;6.998;2023-04-08T00:47:44;51.50;;;29.77;;
1885;SDS011;943;51.568;6.998;2023-04-08T00:50:12;50.33;;;30.07;;
1885;SDS011;943;51.568;6.998;2023-04-08T00:52:40;47.47;;;27.57;;
1885;SDS011;943;51.568;6.998;2023-04-08T00:55:08;49.87;;;29.97;;
1885;SDS011;943;51.568;6.998;2023-04-08T00:57:36;52.37;;;29.50;;
1885;SDS011;943;51.568;6.998;2023-04-08T01:00:04;60.50;;;32.17;;
1885;SDS011;943;51.568;6.998;2023-04-08T01:02:38;51.03;;;31.03;;
1885;SDS011;943;51.568;6.998;2023-04-08T01:08:25;55.57;;;29.90;;
1885;SDS011;943;51.568;6.998;2023-04-08T01:10:59;70.63;;;34.47;;
1885;SDS011;943;51.568;6.998;2023-04-08T01:13:36;55.23;;;31.87;;
1885;SDS011;943;51.568;6.998;2023-04-08T01:16:13;62.43;;;32.97;;
1885;SDS011;943;51.568;6.998;2023-04-08T01:18:44;58.13;;;33.20;;
1885;SDS011;943;51.568;6.998;2023-04-08T01:21:17;54.90;;;32.10;;
1885;SDS011;943;51.568;6.998;2023-04-08T01:26:55;53.33;;;30.53;;
1885;SDS011;943;51.568;6.998;2023-04-08T01:29:27;63.53;;;33.00;;
1885;SDS011;943;51.568;6.998;2023-04-08T01:31:57;56.30;;;33.60;;
1885;SDS011;943;51.568;6.998;2023-04-08T01:34:27;59.33;;;33.67;;
1885;SDS011;943;51.568;6.998;2023-04-08T01:36:58;65.27;;;35.67;;
1885;SDS011;943;51.568;6.998;2023-04-08T01:39:30;63.93;;;38.00;;
1885;SDS011;943;51.568;6.998;2023-04-08T01:42:01;57.33;;;34.43;;
1885;SDS011;943;51.568;6.998;2023-04-08T01:44:30;72.37;;;39.17;;
1885;SDS011;943;51.568;6.998;2023-04-08T01:46:59;60.60;;;35.23;;
1885;SDS011;943;51.568;6.998;2023-04-08T01:49:29;70.00;;;39.10;;
1885;SDS011;943;51.568;6.998;2023-04-08T01:51:58;67.97;;;38.77;;
1885;SDS011;943;51.568;6.998;2023-04-08T01:54:29;64.13;;;35.57;;
1885;SDS011;943;51.568;6.998;2023-04-08T01:56:57;62.53;;;35.70;;
1885;SDS011;943;51.568;6.998;2023-04-08T01:59:28;66.77;;;37.77;;
1885;SDS011;943;51.568;6.998;2023-04-08T02:02:02;69.70;;;42.13;;
1885;SDS011;943;51.568;6.998;2023-04-08T02:04:35;64.90;;;38.97;;
1885;SDS011;943;51.568;6.998;2023-04-08T02:07:03;251.53;;;50.80;;
1885;SDS011;943;51.568;6.998;2023-04-08T02:09:32;76.13;;;37.67;;
1885;SDS011;943;51.568;6.998;2023-04-08T02:12:01;63.53;;;37.70;;
1885;SDS011;943;51.568;6.998;2023-04-08T02:14:29;104.20;;;43.90;;
1885;SDS011;943;51.568;6.998;2023-04-08T02:17:01;56.73;;;34.87;;
1885;SDS011;943;51.568;6.998;2023-04-08T02:22:43;76.77;;;38.50;;
1885;SDS011;943;51.568;6.998;2023-04-08T02:25:27;88.23;;;38.70;;
1885;SDS011;943;51.568;6.998;2023-04-08T02:27:59;88.40;;;39.00;;
1885;SDS011;943;51.568;6.998;2023-04-08T02:30:36;115.57;;;43.20;;
1885;SDS011;943;51.568;6.998;2023-04-08T02:33:13;96.80;;;42.57;;
1885;SDS011;943;51.568;6.998;2023-04-08T02:35:51;102.13;;;43.50;;
1885;SDS011;943;51.568;6.998;2023-04-08T02:38:22;138.03;;;46.40;;
1885;SDS011;943;51.568;6.998;2023-04-08T02:40:55;324.17;;;66.73;;
1885;SDS011;943;51.568;6.998;2023-04-08T02:43:24;85.03;;;41.50;;
1885;SDS011;943;51.568;6.998;2023-04-08T02:45:58;145.33;;;47.97;;
1885;SDS011;943;51.568;6.998;2023-04-08T02:48:29;176.07;;;51.83;;
1885;SDS011;943;51.568;6.998;2023-04-08T02:50:57;286.60;;;53.27;;
1885;SDS011;943;51.568;6.998;2023-04-08T02:53:25;430.00;;;71.53;;
1885;SDS011;943;51.568;6.998;2023-04-08T02:55:53;177.00;;;48.53;;
1885;SDS011;943;51.568;6.998;2023-04-08T02:58:21;241.37;;;55.40;;
1885;SDS011;943;51.568;6.998;2023-04-08T03:00:49;145.60;;;48.50;;
1885;SDS011;943;51.568;6.998;2023-04-08T03:03:17;314.07;;;69.90;;
1885;SDS011;943;51.568;6.998;2023-04-08T03:05:45;328.60;;;67.70;;
1885;SDS011;943;51.568;6.998;2023-04-08T03:08:13;69.13;;;39.83;;
1885;SDS011;943;51.568;6.998;2023-04-08T03:10:41;70.80;;;35.57;;
1885;SDS011;943;51.568;6.998;2023-04-08T03:13:09;56.53;;;33.97;;
1885;SDS011;943;51.568;6.998;2023-04-08T03:15:36;77.43;;;37.80;;
1885;SDS011;943;51.568;6.998;2023-04-08T03:18:04;69.90;;;35.30;;
1885;SDS011;943;51.568;6.998;2023-04-08T03:20:32;54.90;;;33.57;;
1885;SDS011;943;51.568;6.998;2023-04-08T03:23:01;79.53;;;35.33;;
1885;SDS011;943;51.568;6.998;2023-04-08T03:25:29;109.67;;;39.77;;
1885;SDS011;943;51.568;6.998;2023-04-08T03:27:57;54.43;;;28.20;;
1885;SDS011;943;51.568;6.998;2023-04-08T03:30:25;182.27;;;38.93;;
1885;SDS011;943;51.568;6.998;2023-04-08T03:32:53;107.50;;;30.50;;
1885;SDS011;943;51.568;6.998;2023-04-08T03:35:21;60.10;;;25.43;;
1885;SDS011;943;51.568;6.998;2023-04-08T03:37:49;94.33;;;30.03;;
1885;SDS011;943;51.568;6.998;2023-04-08T03:40:17;59.57;;;32.33;;
1885;SDS011;943;51.568;6.998;2023-04-08T03:42:45;154.80;;;31.40;;
1885;SDS011;943;51.568;6.998;2023-04-08T03:45:13;77.60;;;29.80;;
1885;SDS011;943;51.568;6.998;2023-04-08T03:47:41;41.10;;;24.07;;
1885;SDS011;943;51.568;6.998;2023-04-08T03:50:08;30.97;;;20.93;;
1885;SDS011;943;51.568;6.998;2023-04-08T03:52:37;71.77;;;26.07;;
1885;SDS011;943;51.568;6.998;2023-04-08T03:55:05;52.53;;;24.43;;
1885;SDS011;943;51.568;6.998;2023-04-08T03:57:33;37.33;;;23.97;;
1885;SDS011;943;51.568;6.998;2023-04-08T04:00:02;100.20;;;28.37;;
1885;SDS011;943;51.568;6.998;2023-04-08T04:02:37;57.00;;;25.90;;
1885;SDS011;943;51.568;6.998;2023-04-08T04:05:05;40.53;;;24.23;;
1885;SDS011;943;51.568;6.998;2023-04-08T04:07:34;41.83;;;24.63;;
1885;SDS011;943;51.568;6.998;2023-04-08T04:10:02;42.70;;;25.90;;
1885;SDS011;943;51.568;6.998;2023-04-08T04:12:30;97.03;;;31.20;;
1885;SDS011;943;51.568;6.998;2023-04-08T04:14:58;54.63;;;30.80;;
1885;SDS011;943;51.568;6.998;2023-04-08T04:17:26;189.30;;;37.07;;
1885;SDS011;943;51.568;6.998;2023-04-08T04:19:54;122.77;;;34.47;;
1885;SDS011;943;51.568;6.998;2023-04-08T04:22:21;39.30;;;26.03;;
1885;SDS011;943;51.568;6.998;2023-04-08T04:24:49;53.00;;;27.30;;
1885;SDS011;943;51.568;6.998;2023-04-08T04:27:17;44.37;;;26.30;;
1885;SDS011;943;51.568;6.998;2023-04-08T04:29:45;75.30;;;28.80;;
1885;SDS011;943;51.568;6.998;2023-04-08T04:32:14;52.10;;;29.80;;
1885;SDS011;943;51.568;6.998;2023-04-08T04:34:41;70.70;;;30.80;;
1885;SDS011;943;51.568;6.998;2023-04-08T04:37:10;67.60;;;29.67;;
1885;SDS011;943;51.568;6.998;2023-04-08T04:39:38;71.30;;;28.30;;
1885;SDS011;943;51.568;6.998;2023-04-08T04:42:06;46.33;;;25.83;;
1885;SDS011;943;51.568;6.998;2023-04-08T04:44:33;84.43;;;29.97;;
1885;SDS011;943;51.568;6.998;2023-04-08T04:47:02;103.80;;;31.43;;
1885;SDS011;943;51.568;6.998;2023-04-08T04:49:29;190.40;;;37.30;;
1885;SDS011;943;51.568;6.998;2023-04-08T04:51:57;252.07;;;50.17;;
1885;SDS011;943;51.568;6.998;2023-04-08T04:54:25;166.33;;;42.60;;
1885;SDS011;943;51.568;6.998;2023-04-08T04:56:53;128.70;;;42.17;;
1885;SDS011;943;51.568;6.998;2023-04-08T04:59:21;54.50;;;32.10;;
1885;SDS011;943;51.568;6.998;2023-04-08T05:01:49;69.83;;;30.07;;
1885;SDS011;943;51.568;6.998;2023-04-08T05:04:17;127.67;;;37.90;;
1885;SDS011;943;51.568;6.998;2023-04-08T05:06:45;61.40;;;30.23;;
1885;SDS011;943;51.568;6.998;2023-04-08T05:09:12;118.77;;;33.60;;
1885;SDS011;943;51.568;6.998;2023-04-08T05:11:41;60.37;;;27.70;;
1885;SDS011;943;51.568;6.998;2023-04-08T05:14:09;80.83;;;34.93;;
1885;SDS011;943;51.568;6.998;2023-04-08T05:16:37;80.27;;;31.20;;
1885;SDS011;943;51.568;6.998;2023-04-08T05:19:05;113.00;;;37.00;;
1885;SDS011;943;51.568;6.998;2023-04-08T05:21:33;130.97;;;37.87;;
1885;SDS011;943;51.568;6.998;2023-04-08T05:24:01;85.77;;;33.50;;
1885;SDS011;943;51.568;6.998;2023-04-08T05:26:29;56.77;;;27.87;;
1885;SDS011;943;51.568;6.998;2023-04-08T05:28:57;87.73;;;30.20;;
1885;SDS011;943;51.568;6.998;2023-04-08T05:31:25;60.10;;;28.03;;
1885;SDS011;943;51.568;6.998;2023-04-08T05:33:53;74.13;;;32.83;;
1885;SDS011;943;51.568;6.998;2023-04-08T05:36:21;63.67;;;31.40;;
1885;SDS011;943;51.568;6.998;2023-04-08T05:38:49;56.00;;;30.23;;
1885;SDS011;943;51.568;6.998;2023-04-08T05:41:17;95.20;;;33.80;;
1885;SDS011;943;51.568;6.998;2023-04-08T05:43:45;57.70;;;30.10;;
1885;SDS011;943;51.568;6.998;2023-04-08T05:46:13;61.33;;;29.83;;
1885;SDS011;943;51.568;6.998;2023-04-08T05:48:41;56.43;;;29.70;;
1885;SDS011;943;51.568;6.998;2023-04-08T05:51:12;75.37;;;31.00;;
1885;SDS011;943;51.568;6.998;2023-04-08T05:53:46;53.47;;;28.97;;
1885;SDS011;943;51.568;6.998;2023-04-08T05:56:14;42.03;;;28.07;;
1885;SDS011;943;51.568;6.998;2023-04-08T05:58:41;46.97;;;29.77;;
1885;SDS011;943;51.568;6.998;2023-04-08T06:01:09;55.10;;;31.20;;
1885;SDS011;943;51.568;6.998;2023-04-08T06:03:37;56.13;;;32.73;;
1885;SDS011;943;51.568;6.998;2023-04-08T06:06:09;55.53;;;30.37;;
1885;SDS011;943;51.568;6.998;2023-04-08T06:08:38;45.07;;;29.37;;
1885;SDS011;943;51.568;6.998;2023-04-08T06:11:06;45.00;;;29.50;;
1885;SDS011;943;51.568;6.998;2023-04-08T06:13:34;37.73;;;28.30;;
1885;SDS011;943;51.568;6.998;2023-04-08T06:16:12;43.30;;;27.67;;
1885;SDS011;943;51.568;6.998;2023-04-08T06:18:46;41.30;;;29.17;;
1885;SDS011;943;51.568;6.998;2023-04-08T06:21:14;36.83;;;26.47;;
1885;SDS011;943;51.568;6.998;2023-04-08T06:23:42;37.20;;;27.67;;
1885;SDS011;943;51.568;6.998;2023-04-08T06:26:10;34.17;;;25.37;;
1885;SDS011;943;51.568;6.998;2023-04-08T06:28:38;36.63;;;25.90;;
1885;SDS011;943;51.568;6.998;2023-04-08T06:31:06;34.43;;;25.27;;
1885;SDS011;943;51.568;6.998;2023-04-08T06:33:34;34.00;;;25.27;;
1885;SDS011;943;51.568;6.998;2023-04-08T06:36:02;37.83;;;26.90;;
1885;SDS011;943;51.568;6.998;2023-04-08T06:38:33;41.33;;;28.43;;
1885;SDS011;943;51.568;6.998;2023-04-08T06:41:02;45.57;;;31.07;;
1885;SDS011;943;51.568;6.998;2023-04-08T06:43:34;42.23;;;29.10;;
1885;SDS011;943;51.568;6.998;2023-04-08T06:46:03;39.13;;;29.77;;
1885;SDS011;943;51.568;6.998;2023-04-08T06:48:31;36.90;;;27.10;;
1885;SDS011;943;51.568;6.998;2023-04-08T06:50:59;35.63;;;26.07;;
1885;SDS011;943;51.568;6.998;2023-04-08T06:53:28;39.80;;;27.93;;
1885;SDS011;943;51.568;6.998;2023-04-08T06:55:58;33.17;;;25.83;;
1885;SDS011;943;51.568;6.998;2023-04-08T06:58:27;37.57;;;27.83;;
1885;SDS011;943;51.568;6.998;2023-04-08T07:00:55;38.50;;;28.17;;
1885;SDS011;943;51.568;6.998;2023-04-08T07:03:25;36.27;;;25.87;;
1885;SDS011;943;51.568;6.998;2023-04-08T07:05:53;41.40;;;27.90;;
1885;SDS011;943;51.568;6.998;2023-04-08T07:08:21;42.67;;;29.00;;
1885;SDS011;943;51.568;6.998;2023-04-08T07:10:50;37.90;;;27.37;;
1885;SDS011;943;51.568;6.998;2023-04-08T07:13:19;46.97;;;32.20;;
1885;SDS011;943;51.568;6.998;2023-04-08T07:15:47;49.00;;;36.47;;
1885;SDS011;943;51.568;6.998;2023-04-08T07:18:15;42.47;;;32.40;;
1885;SDS011;943;51.568;6.998;2023-04-08T07:20:43;32.67;;;23.43;;
1885;SDS011;943;51.568;6.998;2023-04-08T07:23:11;22.47;;;18.83;;
1885;SDS011;943;51.568;6.998;2023-04-08T07:25:38;20.07;;;17.90;;
1885;SDS011;943;51.568;6.998;2023-04-08T07:28:06;19.23;;;17.20;;
1885;SDS011;943;51.568;6.998;2023-04-08T07:30:34;21.70;;;17.47;;
1885;SDS011;943;51.568;6.998;2023-04-08T07:33:02;20.40;;;16.00;;
1885;SDS011;943;51.568;6.998;2023-04-08T07:35:30;18.43;;;14.90;;
1885;SDS011;943;51.568;6.998;2023-04-08T07:37:59;17.97;;;14.23;;
1885;SDS011;943;51.568;6.998;2023-04-08T07:40:27;14.57;;;12.97;;
1885;SDS011;943;51.568;6.998;2023-04-08T07:42:55;19.20;;;15.00;;
1885;SDS011;943;51.568;6.998;2023-04-08T07:45:23;17.13;;;14.03;;
1885;SDS011;943;51.568;6.998;2023-04-08T07:47:57;19.43;;;14.97;;
1885;SDS011;943;51.568;6.998;2023-04-08T07:50:24;17.23;;;14.27;;
1885;SDS011;943;51.568;6.998;2023-04-08T07:52:52;17.93;;;14.60;;
1885;SDS011;943;51.568;6.998;2023-04-08T07:55:21;15.70;;;14.00;;
1885;SDS011;943;51.568;6.998;2023-04-08T07:57:49;16.90;;;14.20;;
1885;SDS011;943;51.568;6.998;2023-04-08T08:00:17;15.63;;;12.97;;
1885;SDS011;943;51.568;6.998;2023-04-08T08:02:47;17.00;;;13.70;;
1885;SDS011;943;51.568;6.998;2023-04-08T08:05:15;17.83;;;12.13;;
1885;SDS011;943;51.568;6.998;2023-04-08T08:07:43;15.47;;;12.73;;
1885;SDS011;943;51.568;6.998;2023-04-08T08:10:11;13.83;;;12.37;;
1885;SDS011;943;51.568;6.998;2023-04-08T08:12:39;13.33;;;11.70;;
1885;SDS011;943;51.568;6.998;2023-04-08T08:15:07;17.27;;;13.80;;
1885;SDS011;943;51.568;6.998;2023-04-08T08:17:36;19.33;;;12.90;;
1885;SDS011;943;51.568;6.998;2023-04-08T08:20:04;14.87;;;11.60;;
1885;SDS011;943;51.568;6.998;2023-04-08T08:22:34;14.13;;;10.77;;
1885;SDS011;943;51.568;6.998;2023-04-08T08:25:22;16.67;;;12.13;;
1885;SDS011;943;51.568;6.998;2023-04-08T08:27:51;14.67;;;11.53;;
1885;SDS011;943;51.568;6.998;2023-04-08T08:30:20;14.47;;;10.97;;
1885;SDS011;943;51.568;6.998;2023-04-08T08:32:48;14.33;;;11.47;;
1885;SDS011;943;51.568;6.998;2023-04-08T08:35:17;16.07;;;11.77;;
1885;SDS011;943;51.568;6.998;2023-04-08T08:37:45;12.80;;;11.03;;
1885;SDS011;943;51.568;6.998;2023-04-08T08:40:13;14.13;;;11.57;;
1885;SDS011;943;51.568;6.998;2023-04-08T08:42:48;14.23;;;12.10;;
1885;SDS011;943;51.568;6.998;2023-04-08T08:45:19;14.73;;;11.97;;
1885;SDS011;943;51.568;6.998;2023-04-08T08:47:47;15.00;;;11.57;;
1885;SDS011;943;51.568;6.998;2023-04-08T08:50:17;16.90;;;11.57;;
1885;SDS011;943;51.568;6.998;2023-04-08T08:52:49;15.20;;;12.10;;
1885;SDS011;943;51.568;6.998;2023-04-08T08:55:19;13.37;;;11.67;;
1885;SDS011;943;51.568;6.998;2023-04-08T08:58:08;13.17;;;11.60;;
1885;SDS011;943;51.568;6.998;2023-04-08T09:00:36;14.37;;;11.70;;
1885;SDS011;943;51.568;6.998;2023-04-08T09:03:20;13.43;;;12.03;;
1885;SDS011;943;51.568;6.998;2023-04-08T09:05:55;13.83;;;11.13;;
1885;SDS011;943;51.568;6.998;2023-04-08T09:08:31;13.13;;;11.60;;
1885;SDS011;943;51.568;6.998;2023-04-08T09:11:13;13.43;;;10.60;;
1885;SDS011;943;51.568;6.998;2023-04-08T09:13:45;12.70;;;10.80;;
1885;SDS011;943;51.568;6.998;2023-04-08T09:16:17;13.40;;;11.93;;
1885;SDS011;943;51.568;6.998;2023-04-08T09:18:46;13.50;;;10.60;;
1885;SDS011;943;51.568;6.998;2023-04-08T09:21:16;12.40;;;10.70;;
1885;SDS011;943;51.568;6.998;2023-04-08T09:23:51;11.17;;;9.97;;
1885;SDS011;943;51.568;6.998;2023-04-08T09:26:20;11.87;;;8.90;;
1885;SDS011;943;51.568;6.998;2023-04-08T09:28:58;10.37;;;9.20;;
1885;SDS011;943;51.568;6.998;2023-04-08T09:31:54;11.53;;;10.27;;
1885;SDS011;943;51.568;6.998;2023-04-08T09:34:27;11.13;;;9.60;;
1885;SDS011;943;51.568;6.998;2023-04-08T09:36:57;11.87;;;9.40;;
1885;SDS011;943;51.568;6.998;2023-04-08T09:39:25;12.60;;;10.63;;
1885;SDS011;943;51.568;6.998;2023-04-08T09:41:53;11.40;;;10.20;;
1885;SDS011;943;51.568;6.998;2023-04-08T09:44:28;10.43;;;9.33;;
1885;SDS011;943;51.568;6.998;2023-04-08T09:47:15;11.80;;;9.30;;
1885;SDS011;943;51.568;6.998;2023-04-08T09:49:54;12.07;;;8.47;;
1885;SDS011;943;51.568;6.998;2023-04-08T09:52:44;12.37;;;9.13;;
1885;SDS011;943;51.568;6.998;2023-04-08T09:55:22;19.43;;;9.83;;
1885;SDS011;943;51.568;6.998;2023-04-08T09:57:58;10.40;;;8.00;;
1885;SDS011;943;51.568;6.998;2023-04-08T10:00:45;9.70;;;8.27;;
1885;SDS011;943;51.568;6.998;2023-04-08T10:03:39;10.90;;;9.23;;
1885;SDS011;943;51.568;6.998;2023-04-08T10:06:26;15.07;;;9.80;;
1885;SDS011;943;51.568;6.998;2023-04-08T10:08:57;9.63;;;8.63;;
1885;SDS011;943;51.568;6.998;2023-04-08T10:11:28;10.40;;;8.90;;
1885;SDS011;943;51.568;6.998;2023-04-08T10:13:57;15.13;;;9.03;;
1885;SDS011;943;51.568;6.998;2023-04-08T10:16:26;9.87;;;8.40;;
1885;SDS011;943;51.568;6.998;2023-04-08T10:18:56;10.27;;;8.43;;
1885;SDS011;943;51.568;6.998;2023-04-08T10:21:37;12.50;;;8.60;;
1885;SDS011;943;51.568;6.998;2023-04-08T10:24:17;12.13;;;10.23;;
1885;SDS011;943;51.568;6.998;2023-04-08T10:26:49;11.83;;;9.03;;
1885;SDS011;943;51.568;6.998;2023-04-08T10:31:56;11.57;;;10.23;;
1885;SDS011;943;51.568;6.998;2023-04-08T10:34:24;12.80;;;9.10;;
1885;SDS011;943;51.568;6.998;2023-04-08T10:36:54;12.67;;;9.20;;
1885;SDS011;943;51.568;6.998;2023-04-08T10:39:27;11.73;;;9.10;;
1885;SDS011;943;51.568;6.998;2023-04-08T10:41:57;11.07;;;9.87;;
1885;SDS011;943;51.568;6.998;2023-04-08T10:44:28;9.90;;;8.23;;
1885;SDS011;943;51.568;6.998;2023-04-08T10:46:56;13.13;;;9.67;;
1885;SDS011;943;51.568;6.998;2023-04-08T10:49:32;10.50;;;8.57;;
1885;SDS011;943;51.568;6.998;2023-04-08T10:52:05;10.57;;;8.97;;
1885;SDS011;943;51.568;6.998;2023-04-08T10:54:35;11.57;;;9.30;;
1885;SDS011;943;51.568;6.998;2023-04-08T10:57:04;31.93;;;24.03;;
1885;SDS011;943;51.568;6.998;2023-04-08T10:59:32;11.20;;;8.60;;
1885;SDS011;943;51.568;6.998;2023-04-08T11:02:00;11.27;;;8.83;;
1885;SDS011;943;51.568;6.998;2023-04-08T11:04:29;10.83;;;8.20;;
1885;SDS011;943;51.568;6.998;2023-04-08T11:06:58;11.70;;;7.50;;
1885;SDS011;943;51.568;6.998;2023-04-08T11:09:32;11.60;;;8.63;;
1885;SDS011;943;51.568;6.998;2023-04-08T11:12:01;8.77;;;7.20;;
1885;SDS011;943;51.568;6.998;2023-04-08T11:14:30;9.37;;;8.03;;
1885;SDS011;943;51.568;6.998;2023-04-08T11:16:59;7.47;;;6.17;;
1885;SDS011;943;51.568;6.998;2023-04-08T11:19:27;8.93;;;7.63;;
1885;SDS011;943;51.568;6.998;2023-04-08T11:21:56;12.90;;;7.83;;
1885;SDS011;943;51.568;6.998;2023-04-08T11:24:25;10.77;;;8.07;;
1885;SDS011;943;51.568;6.998;2023-04-08T11:26:54;12.60;;;10.10;;
1885;SDS011;943;51.568;6.998;2023-04-08T11:29:22;10.90;;;8.90;;
1885;SDS011;943;51.568;6.998;2023-04-08T11:31:50;9.27;;;7.87;;
1885;SDS011;943;51.568;6.998;2023-04-08T11:34:22;9.20;;;8.30;;
1885;SDS011;943;51.568;6.998;2023-04-08T11:36:51;15.93;;;8.20;;
1885;SDS011;943;51.568;6.998;2023-04-08T11:39:21;11.33;;;7.60;;
1885;SDS011;943;51.568;6.998;2023-04-08T11:41:49;12.47;;;8.57;;
1885;SDS011;943;51.568;6.998;2023-04-08T11:44:18;11.80;;;9.43;;
1885;SDS011;943;51.568;6.998;2023-04-08T11:46:56;11.77;;;9.00;;
1885;SDS011;943;51.568;6.998;2023-04-08T11:49:24;12.50;;;8.80;;
1885;SDS011;943;51.568;6.998;2023-04-08T11:51:56;13.47;;;10.03;;
1885;SDS011;943;51.568;6.998;2023-04-08T11:54:29;13.20;;;10.83;;
1885;SDS011;943;51.568;6.998;2023-04-08T11:56:59;11.00;;;9.40;;
1885;SDS011;943;51.568;6.998;2023-04-08T11:59:28;13.67;;;10.90;;
1885;SDS011;943;51.568;6.998;2023-04-08T12:01:57;9.83;;;7.80;;
1885;SDS011;943;51.568;6.998;2023-04-08T12:04:25;13.90;;;10.80;;
1885;SDS011;943;51.568;6.998;2023-04-08T12:06:53;16.20;;;11.50;;
1885;SDS011;943;51.568;6.998;2023-04-08T12:09:24;9.53;;;7.57;;
1885;SDS011;943;51.568;6.998;2023-04-08T12:11:53;11.47;;;9.37;;
1885;SDS011;943;51.568;6.998;2023-04-08T12:14:22;15.57;;;11.97;;
1885;SDS011;943;51.568;6.998;2023-04-08T12:16:53;10.70;;;9.10;;
1885;SDS011;943;51.568;6.998;2023-04-08T12:19:21;10.67;;;9.13;;
1885;SDS011;943;51.568;6.998;2023-04-08T12:21:50;9.80;;;8.27;;
1885;SDS011;943;51.568;6.998;2023-04-08T12:24:18;11.17;;;9.17;;
1885;SDS011;943;51.568;6.998;2023-04-08T12:26:48;38.77;;;27.63;;
1885;SDS011;943;51.568;6.998;2023-04-08T12:29:18;15.63;;;11.87;;
1885;SDS011;943;51.568;6.998;2023-04-08T12:31:46;9.00;;;8.00;;
1885;SDS011;943;51.568;6.998;2023-04-08T12:34:14;10.77;;;9.13;;
1885;SDS011;943;51.568;6.998;2023-04-08T12:36:42;10.27;;;8.50;;
1885;SDS011;943;51.568;6.998;2023-04-08T12:39:10;12.10;;;8.63;;
1885;SDS011;943;51.568;6.998;2023-04-08T12:41:38;9.70;;;8.60;;
1885;SDS011;943;51.568;6.998;2023-04-08T12:44:06;10.30;;;8.47;;
1885;SDS011;943;51.568;6.998;2023-04-08T12:46:34;14.23;;;9.93;;
1885;SDS011;943;51.568;6.998;2023-04-08T12:49:02;11.50;;;9.30;;
1885;SDS011;943;51.568;6.998;2023-04-08T12:51:31;10.27;;;8.80;;
1885;SDS011;943;51.568;6.998;2023-04-08T12:54:00;11.67;;;9.13;;
1885;SDS011;943;51.568;6.998;2023-04-08T12:56:30;11.00;;;9.90;;
1885;SDS011;943;51.568;6.998;2023-04-08T12:58:59;11.43;;;9.77;;
1885;SDS011;943;51.568;6.998;2023-04-08T13:01:28;11.17;;;9.73;;
1885;SDS011;943;51.568;6.998;2023-04-08T13:03:56;9.90;;;8.90;;
1885;SDS011;943;51.568;6.998;2023-04-08T13:06:25;9.63;;;8.50;;
1885;SDS011;943;51.568;6.998;2023-04-08T13:08:53;11.40;;;9.70;;
1885;SDS011;943;51.568;6.998;2023-04-08T13:11:21;11.23;;;8.30;;
1885;SDS011;943;51.568;6.998;2023-04-08T13:13:49;10.73;;;8.80;;
1885;SDS011;943;51.568;6.998;2023-04-08T13:16:18;10.10;;;8.93;;
1885;SDS011;943;51.568;6.998;2023-04-08T13:18:46;13.40;;;9.53;;
1885;SDS011;943;51.568;6.998;2023-04-08T13:21:14;9.87;;;8.87;;
1885;SDS011;943;51.568;6.998;2023-04-08T13:23:42;10.80;;;9.07;;
1885;SDS011;943;51.568;6.998;2023-04-08T13:26:09;11.13;;;9.93;;
1885;SDS011;943;51.568;6.998;2023-04-08T13:28:37;13.47;;;8.97;;
1885;SDS011;943;51.568;6.998;2023-04-08T13:31:19;10.77;;;9.67;;
1885;SDS011;943;51.568;6.998;2023-04-08T13:33:47;11.03;;;8.30;;
1885;SDS011;943;51.568;6.998;2023-04-08T13:36:15;11.87;;;10.60;;
1885;SDS011;943;51.568;6.998;2023-04-08T13:38:43;10.70;;;9.60;;
1885;SDS011;943;51.568;6.998;2023-04-08T13:41:11;11.33;;;10.13;;
1885;SDS011;943;51.568;6.998;2023-04-08T13:43:39;10.40;;;8.90;;
1885;SDS011;943;51.568;6.998;2023-04-08T13:46:07;11.07;;;9.90;;
1885;SDS011;943;51.568;6.998;2023-04-08T13:48:36;14.37;;;9.23;;
1885;SDS011;943;51.568;6.998;2023-04-08T13:51:05;12.23;;;10.27;;
1885;SDS011;943;51.568;6.998;2023-04-08T13:53:33;12.80;;;10.50;;
1885;SDS011;943;51.568;6.998;2023-04-08T13:56:02;14.47;;;10.53;;
1885;SDS011;943;51.568;6.998;2023-04-08T13:58:32;12.00;;;10.10;;
1885;SDS011;943;51.568;6.998;2023-04-08T14:01:00;16.23;;;11.20;;
1885;SDS011;943;51.568;6.998;2023-04-08T14:03:28;14.17;;;12.07;;
1885;SDS011;943;51.568;6.998;2023-04-08T14:05:56;12.13;;;10.83;;
1885;SDS011;943;51.568;6.998;2023-04-08T14:08:27;14.83;;;10.53;;
1885;SDS011;943;51.568;6.998;2023-04-08T14:10:55;11.83;;;10.33;;
1885;SDS011;943;51.568;6.998;2023-04-08T14:13:24;11.50;;;10.30;;
1885;SDS011;943;51.568;6.998;2023-04-08T14:15:52;11.63;;;10.43;;
1885;SDS011;943;51.568;6.998;2023-04-08T14:18:23;15.20;;;11.97;;
1885;SDS011;943;51.568;6.998;2023-04-08T14:20:52;13.47;;;11.70;;
1885;SDS011;943;51.568;6.998;2023-04-08T14:23:20;13.73;;;12.27;;
1885;SDS011;943;51.568;6.998;2023-04-08T14:25:47;12.80;;;10.00;;
1885;SDS011;943;51.568;6.998;2023-04-08T14:28:15;14.70;;;12.43;;
1885;SDS011;943;51.568;6.998;2023-04-08T14:30:44;14.60;;;12.83;;
1885;SDS011;943;51.568;6.998;2023-04-08T14:33:13;16.23;;;13.60;;
1885;SDS011;943;51.568;6.998;2023-04-08T14:35:41;14.70;;;12.13;;
1885;SDS011;943;51.568;6.998;2023-04-08T14:38:08;14.20;;;12.70;;
1885;SDS011;943;51.568;6.998;2023-04-08T14:40:37;15.50;;;12.67;;
1885;SDS011;943;51.568;6.998;2023-04-08T14:43:05;14.40;;;11.30;;
1885;SDS011;943;51.568;6.998;2023-04-08T14:45:33;16.37;;;12.27;;
1885;SDS011;943;51.568;6.998;2023-04-08T14:48:01;18.43;;;13.90;;
1885;SDS011;943;51.568;6.998;2023-04-08T14:50:29;17.27;;;13.13;;
1885;SDS011;943;51.568;6.998;2023-04-08T14:52:57;17.20;;;13.27;;
1885;SDS011;943;51.568;6.998;2023-04-08T14:55:25;21.93;;;14.00;;
1885;SDS011;943;51.568;6.998;2023-04-08T14:57:55;18.63;;;13.83;;
1885;SDS011;943;51.568;6.998;2023-04-08T15:00:26;15.67;;;13.60;;
1885;SDS011;943;51.568;6.998;2023-04-08T15:02:54;17.93;;;14.47;;
1885;SDS011;943;51.568;6.998;2023-04-08T15:05:22;16.73;;;13.60;;
1885;SDS011;943;51.568;6.998;2023-04-08T15:07:50;18.03;;;16.13;;
1885;SDS011;943;51.568;6.998;2023-04-08T15:10:19;15.93;;;13.70;;
1885;SDS011;943;51.568;6.998;2023-04-08T15:12:47;15.40;;;13.77;;
1885;SDS011;943;51.568;6.998;2023-04-08T15:15:14;15.47;;;12.67;;
1885;SDS011;943;51.568;6.998;2023-04-08T15:17:42;13.17;;;11.80;;
1885;SDS011;943;51.568;6.998;2023-04-08T15:20:10;15.93;;;13.93;;
1885;SDS011;943;51.568;6.998;2023-04-08T15:22:39;14.57;;;11.90;;
1885;SDS011;943;51.568;6.998;2023-04-08T15:25:07;15.20;;;11.40;;
1885;SDS011;943;51.568;6.998;2023-04-08T15:27:36;18.57;;;12.97;;
1885;SDS011;943;51.568;6.998;2023-04-08T15:30:05;14.63;;;11.30;;
1885;SDS011;943;51.568;6.998;2023-04-08T15:32:37;13.50;;;10.37;;